Terminal Aerodrome Forecast
Issued by NWS

Home | Current Version | Previous Version | Text Only | Print | Product List | Glossary On
Versions: 1 2 3 4 5 6 7 8 9 10 11 12 13 14 15 16 17 18 19 20 21 22 23 24 25 26 27 28 29 30 31 32 33 34 35 36 37 38 39 40 41 42 43 44 45 46 47 48 49
000
FTUS41 KRNK 300907 AAA
TAFLWB
TAF AMD
KLWB 300907Z 3009/3106 00000KT P6SM OVC025
     FM301100 12007KT P6SM BKN020
     FM301400 13008KT 4SM BR OVC010
     FM301700 13008KT P6SM OVC010
     FM302000 13008KT P6SM BKN035
     FM310400 11006KT P6SM OVC003 WS020/17035KT=

USA.gov is the U.S. government's official web portal to all federal, state and local government web resources and services.